sensor_id;sensor_type;location;lat;lon;timestamp;P1;durP1;ratioP1;P2;durP2;ratioP2
44774;SDS011;31340;51.402;0.016;2024-02-28T00:01:00;14.70;;;3.03;;
44774;SDS011;31340;51.402;0.016;2024-02-28T00:03:27;9.20;;;2.95;;
44774;SDS011;31340;51.402;0.016;2024-02-28T00:05:55;9.65;;;3.35;;
44774;SDS011;31340;51.402;0.016;2024-02-28T00:08:23;10.45;;;3.53;;
44774;SDS011;31340;51.402;0.016;2024-02-28T00:10:50;7.40;;;3.05;;
44774;SDS011;31340;51.402;0.016;2024-02-28T00:13:18;10.32;;;3.30;;
44774;SDS011;31340;51.402;0.016;2024-02-28T00:15:47;10.77;;;3.20;;
44774;SDS011;31340;51.402;0.016;2024-02-28T00:18:14;12.55;;;3.90;;
44774;SDS011;31340;51.402;0.016;2024-02-28T00:20:46;11.25;;;3.90;;
44774;SDS011;31340;51.402;0.016;2024-02-28T00:23:13;9.63;;;3.03;;
44774;SDS011;31340;51.402;0.016;2024-02-28T00:25:41;11.18;;;3.22;;
44774;SDS011;31340;51.402;0.016;2024-02-28T00:28:09;11.27;;;3.38;;
44774;SDS011;31340;51.402;0.016;2024-02-28T00:30:37;10.77;;;3.45;;
44774;SDS011;31340;51.402;0.016;2024-02-28T00:33:04;11.18;;;3.25;;
44774;SDS011;31340;51.402;0.016;2024-02-28T00:35:32;16.10;;;4.15;;
44774;SDS011;31340;51.402;0.016;2024-02-28T00:38:02;17.00;;;3.58;;
44774;SDS011;31340;51.402;0.016;2024-02-28T00:40:30;14.52;;;3.53;;
44774;SDS011;31340;51.402;0.016;2024-02-28T00:42:58;14.63;;;3.90;;
44774;SDS011;31340;51.402;0.016;2024-02-28T00:45:26;13.27;;;3.25;;
44774;SDS011;31340;51.402;0.016;2024-02-28T00:47:53;15.38;;;3.88;;
44774;SDS011;31340;51.402;0.016;2024-02-28T00:50:22;13.25;;;3.72;;
44774;SDS011;31340;51.402;0.016;2024-02-28T00:52:49;11.25;;;3.45;;
44774;SDS011;31340;51.402;0.016;2024-02-28T00:55:17;12.38;;;3.08;;
44774;SDS011;31340;51.402;0.016;2024-02-28T00:57:45;12.40;;;3.78;;
44774;SDS011;31340;51.402;0.016;2024-02-28T01:00:13;10.18;;;3.35;;
44774;SDS011;31340;51.402;0.016;2024-02-28T01:02:41;11.45;;;3.08;;
44774;SDS011;31340;51.402;0.016;2024-02-28T01:05:09;17.02;;;4.07;;
44774;SDS011;31340;51.402;0.016;2024-02-28T01:07:36;10.00;;;3.88;;
44774;SDS011;31340;51.402;0.016;2024-02-28T01:10:04;9.88;;;3.45;;
44774;SDS011;31340;51.402;0.016;2024-02-28T01:12:33;13.10;;;3.38;;
44774;SDS011;31340;51.402;0.016;2024-02-28T01:15:01;11.00;;;3.40;;
44774;SDS011;31340;51.402;0.016;2024-02-28T01:17:30;17.42;;;3.72;;
44774;SDS011;31340;51.402;0.016;2024-02-28T01:19:57;12.38;;;3.58;;
44774;SDS011;31340;51.402;0.016;2024-02-28T01:22:25;13.73;;;3.40;;
44774;SDS011;31340;51.402;0.016;2024-02-28T01:24:52;11.10;;;3.30;;
44774;SDS011;31340;51.402;0.016;2024-02-28T01:27:20;10.88;;;3.33;;
44774;SDS011;31340;51.402;0.016;2024-02-28T01:29:48;10.82;;;3.97;;
44774;SDS011;31340;51.402;0.016;2024-02-28T01:32:15;10.60;;;3.55;;
44774;SDS011;31340;51.402;0.016;2024-02-28T01:34:43;16.27;;;4.10;;
44774;SDS011;31340;51.402;0.016;2024-02-28T01:37:10;8.63;;;3.60;;
44774;SDS011;31340;51.402;0.016;2024-02-28T01:39:38;11.85;;;3.50;;
44774;SDS011;31340;51.402;0.016;2024-02-28T01:42:05;10.45;;;3.53;;
44774;SDS011;31340;51.402;0.016;2024-02-28T01:44:38;11.05;;;3.40;;
44774;SDS011;31340;51.402;0.016;2024-02-28T01:47:11;11.77;;;3.05;;
44774;SDS011;31340;51.402;0.016;2024-02-28T01:49:40;12.20;;;3.25;;
44774;SDS011;31340;51.402;0.016;2024-02-28T01:52:09;6.80;;;2.75;;
44774;SDS011;31340;51.402;0.016;2024-02-28T01:54:38;13.15;;;4.25;;
44774;SDS011;31340;51.402;0.016;2024-02-28T01:57:07;25.02;;;4.40;;
44774;SDS011;31340;51.402;0.016;2024-02-28T01:59:34;8.73;;;3.53;;
44774;SDS011;31340;51.402;0.016;2024-02-28T02:02:03;14.30;;;3.63;;
44774;SDS011;31340;51.402;0.016;2024-02-28T02:04:32;11.80;;;3.50;;
44774;SDS011;31340;51.402;0.016;2024-02-28T02:06:59;16.27;;;4.38;;
44774;SDS011;31340;51.402;0.016;2024-02-28T02:09:27;10.60;;;3.42;;
44774;SDS011;31340;51.402;0.016;2024-02-28T02:11:55;9.82;;;3.25;;
44774;SDS011;31340;51.402;0.016;2024-02-28T02:14:23;12.52;;;3.75;;
44774;SDS011;31340;51.402;0.016;2024-02-28T02:16:50;12.80;;;3.88;;
44774;SDS011;31340;51.402;0.016;2024-02-28T02:19:18;12.10;;;3.40;;
44774;SDS011;31340;51.402;0.016;2024-02-28T02:21:49;15.70;;;3.50;;
44774;SDS011;31340;51.402;0.016;2024-02-28T02:24:19;11.82;;;3.75;;
44774;SDS011;31340;51.402;0.016;2024-02-28T02:26:47;12.07;;;2.92;;
44774;SDS011;31340;51.402;0.016;2024-02-28T02:29:14;7.78;;;2.75;;
44774;SDS011;31340;51.402;0.016;2024-02-28T02:31:42;11.95;;;3.13;;
44774;SDS011;31340;51.402;0.016;2024-02-28T02:34:09;11.15;;;2.92;;
44774;SDS011;31340;51.402;0.016;2024-02-28T02:36:37;9.88;;;3.00;;
44774;SDS011;31340;51.402;0.016;2024-02-28T02:39:04;14.05;;;3.63;;
44774;SDS011;31340;51.402;0.016;2024-02-28T02:41:34;8.10;;;2.88;;
44774;SDS011;31340;51.402;0.016;2024-02-28T02:44:02;10.35;;;3.22;;
44774;SDS011;31340;51.402;0.016;2024-02-28T02:46:29;7.07;;;2.75;;
44774;SDS011;31340;51.402;0.016;2024-02-28T02:48:57;12.00;;;3.65;;
44774;SDS011;31340;51.402;0.016;2024-02-28T02:51:25;14.52;;;3.90;;
44774;SDS011;31340;51.402;0.016;2024-02-28T02:53:53;10.48;;;3.45;;
44774;SDS011;31340;51.402;0.016;2024-02-28T02:56:21;14.20;;;2.97;;
44774;SDS011;31340;51.402;0.016;2024-02-28T02:58:48;11.43;;;2.92;;
44774;SDS011;31340;51.402;0.016;2024-02-28T03:01:16;7.45;;;2.47;;
44774;SDS011;31340;51.402;0.016;2024-02-28T03:03:44;9.15;;;2.80;;
44774;SDS011;31340;51.402;0.016;2024-02-28T03:06:12;11.02;;;2.75;;
44774;SDS011;31340;51.402;0.016;2024-02-28T03:08:39;11.18;;;3.58;;
44774;SDS011;31340;51.402;0.016;2024-02-28T03:11:07;9.68;;;3.25;;
44774;SDS011;31340;51.402;0.016;2024-02-28T03:13:35;8.40;;;2.70;;
44774;SDS011;31340;51.402;0.016;2024-02-28T03:16:03;8.68;;;2.63;;
44774;SDS011;31340;51.402;0.016;2024-02-28T03:18:31;7.78;;;2.65;;
44774;SDS011;31340;51.402;0.016;2024-02-28T03:20:59;10.32;;;3.40;;
44774;SDS011;31340;51.402;0.016;2024-02-28T03:23:27;12.70;;;3.50;;
44774;SDS011;31340;51.402;0.016;2024-02-28T03:25:54;11.70;;;3.45;;
44774;SDS011;31340;51.402;0.016;2024-02-28T03:28:22;10.35;;;2.83;;
44774;SDS011;31340;51.402;0.016;2024-02-28T03:30:50;14.95;;;3.20;;
44774;SDS011;31340;51.402;0.016;2024-02-28T03:33:17;8.85;;;3.08;;
44774;SDS011;31340;51.402;0.016;2024-02-28T03:35:45;9.88;;;3.10;;
44774;SDS011;31340;51.402;0.016;2024-02-28T03:38:13;21.70;;;3.63;;
44774;SDS011;31340;51.402;0.016;2024-02-28T03:40:40;12.00;;;3.03;;
44774;SDS011;31340;51.402;0.016;2024-02-28T03:43:08;7.13;;;3.30;;
44774;SDS011;31340;51.402;0.016;2024-02-28T03:45:38;8.20;;;3.20;;
44774;SDS011;31340;51.402;0.016;2024-02-28T03:50:34;10.30;;;3.10;;
44774;SDS011;31340;51.402;0.016;2024-02-28T03:53:02;12.88;;;3.08;;
44774;SDS011;31340;51.402;0.016;2024-02-28T03:55:29;9.60;;;3.50;;
44774;SDS011;31340;51.402;0.016;2024-02-28T03:57:57;7.20;;;2.72;;
44774;SDS011;31340;51.402;0.016;2024-02-28T04:00:25;10.25;;;3.50;;
44774;SDS011;31340;51.402;0.016;2024-02-28T04:02:53;7.45;;;2.75;;
44774;SDS011;31340;51.402;0.016;2024-02-28T04:05:20;9.23;;;3.30;;
44774;SDS011;31340;51.402;0.016;2024-02-28T04:07:48;10.07;;;3.13;;
44774;SDS011;31340;51.402;0.016;2024-02-28T04:10:16;12.65;;;3.53;;
44774;SDS011;31340;51.402;0.016;2024-02-28T04:12:43;9.73;;;3.28;;
44774;SDS011;31340;51.402;0.016;2024-02-28T04:15:11;10.48;;;3.55;;
44774;SDS011;31340;51.402;0.016;2024-02-28T04:17:42;12.60;;;3.90;;
44774;SDS011;31340;51.402;0.016;2024-02-28T04:20:13;7.88;;;2.95;;
44774;SDS011;31340;51.402;0.016;2024-02-28T04:25:08;15.23;;;3.28;;
44774;SDS011;31340;51.402;0.016;2024-02-28T04:27:36;9.25;;;3.50;;
44774;SDS011;31340;51.402;0.016;2024-02-28T04:30:04;9.02;;;3.13;;
44774;SDS011;31340;51.402;0.016;2024-02-28T04:32:32;13.70;;;3.55;;
44774;SDS011;31340;51.402;0.016;2024-02-28T04:35:03;11.98;;;3.35;;
44774;SDS011;31340;51.402;0.016;2024-02-28T04:37:31;11.07;;;3.35;;
44774;SDS011;31340;51.402;0.016;2024-02-28T04:39:59;12.73;;;4.07;;
44774;SDS011;31340;51.402;0.016;2024-02-28T04:42:26;12.70;;;3.70;;
44774;SDS011;31340;51.402;0.016;2024-02-28T04:44:54;11.27;;;4.05;;
44774;SDS011;31340;51.402;0.016;2024-02-28T04:47:22;11.98;;;3.97;;
44774;SDS011;31340;51.402;0.016;2024-02-28T04:49:59;9.13;;;3.88;;
44774;SDS011;31340;51.402;0.016;2024-02-28T04:52:27;15.90;;;4.43;;
44774;SDS011;31340;51.402;0.016;2024-02-28T04:54:55;13.85;;;5.00;;
44774;SDS011;31340;51.402;0.016;2024-02-28T04:57:23;14.10;;;5.13;;
44774;SDS011;31340;51.402;0.016;2024-02-28T04:59:51;13.02;;;6.00;;
44774;SDS011;31340;51.402;0.016;2024-02-28T05:02:19;15.45;;;6.18;;
44774;SDS011;31340;51.402;0.016;2024-02-28T05:04:49;17.60;;;7.18;;
44774;SDS011;31340;51.402;0.016;2024-02-28T05:07:17;22.17;;;7.90;;
44774;SDS011;31340;51.402;0.016;2024-02-28T05:09:44;11.95;;;6.43;;
44774;SDS011;31340;51.402;0.016;2024-02-28T05:12:12;16.77;;;7.57;;
44774;SDS011;31340;51.402;0.016;2024-02-28T05:14:40;17.55;;;6.50;;
44774;SDS011;31340;51.402;0.016;2024-02-28T05:17:08;14.75;;;7.28;;
44774;SDS011;31340;51.402;0.016;2024-02-28T05:19:35;16.80;;;6.93;;
44774;SDS011;31340;51.402;0.016;2024-02-28T05:22:03;15.32;;;7.22;;
44774;SDS011;31340;51.402;0.016;2024-02-28T05:24:31;12.45;;;6.47;;
44774;SDS011;31340;51.402;0.016;2024-02-28T05:26:58;15.82;;;6.63;;
44774;SDS011;31340;51.402;0.016;2024-02-28T05:29:26;14.02;;;6.70;;
44774;SDS011;31340;51.402;0.016;2024-02-28T05:31:53;15.10;;;6.97;;
44774;SDS011;31340;51.402;0.016;2024-02-28T05:34:21;16.10;;;7.15;;
44774;SDS011;31340;51.402;0.016;2024-02-28T05:36:49;16.38;;;7.97;;
44774;SDS011;31340;51.402;0.016;2024-02-28T05:39:17;15.55;;;7.38;;
44774;SDS011;31340;51.402;0.016;2024-02-28T05:41:45;13.60;;;7.32;;
44774;SDS011;31340;51.402;0.016;2024-02-28T05:44:14;13.50;;;6.90;;
44774;SDS011;31340;51.402;0.016;2024-02-28T05:46:41;12.25;;;6.30;;
44774;SDS011;31340;51.402;0.016;2024-02-28T05:49:09;14.35;;;7.40;;
44774;SDS011;31340;51.402;0.016;2024-02-28T05:51:36;12.55;;;7.05;;
44774;SDS011;31340;51.402;0.016;2024-02-28T05:54:04;14.80;;;7.28;;
44774;SDS011;31340;51.402;0.016;2024-02-28T05:56:32;15.52;;;8.07;;
44774;SDS011;31340;51.402;0.016;2024-02-28T05:58:59;15.60;;;8.23;;
44774;SDS011;31340;51.402;0.016;2024-02-28T06:01:27;12.95;;;7.10;;
44774;SDS011;31340;51.402;0.016;2024-02-28T06:03:54;16.88;;;8.15;;
44774;SDS011;31340;51.402;0.016;2024-02-28T06:06:22;15.77;;;8.23;;
44774;SDS011;31340;51.402;0.016;2024-02-28T06:08:50;15.02;;;7.20;;
44774;SDS011;31340;51.402;0.016;2024-02-28T06:11:18;14.50;;;7.53;;
44774;SDS011;31340;51.402;0.016;2024-02-28T06:13:45;15.82;;;7.47;;
44774;SDS011;31340;51.402;0.016;2024-02-28T06:16:14;15.13;;;7.07;;
44774;SDS011;31340;51.402;0.016;2024-02-28T06:18:42;13.60;;;7.53;;
44774;SDS011;31340;51.402;0.016;2024-02-28T06:21:10;16.77;;;7.85;;
44774;SDS011;31340;51.402;0.016;2024-02-28T06:23:38;15.23;;;7.63;;
44774;SDS011;31340;51.402;0.016;2024-02-28T06:26:06;11.77;;;6.70;;
44774;SDS011;31340;51.402;0.016;2024-02-28T06:28:33;15.00;;;7.10;;
44774;SDS011;31340;51.402;0.016;2024-02-28T06:31:01;17.52;;;7.28;;
44774;SDS011;31340;51.402;0.016;2024-02-28T06:33:29;14.55;;;8.20;;
44774;SDS011;31340;51.402;0.016;2024-02-28T06:35:58;16.13;;;7.70;;
44774;SDS011;31340;51.402;0.016;2024-02-28T06:38:25;18.65;;;7.43;;
44774;SDS011;31340;51.402;0.016;2024-02-28T06:40:53;15.75;;;6.95;;
44774;SDS011;31340;51.402;0.016;2024-02-28T06:43:20;17.40;;;7.93;;
44774;SDS011;31340;51.402;0.016;2024-02-28T06:45:48;15.10;;;6.78;;
44774;SDS011;31340;51.402;0.016;2024-02-28T06:48:16;15.02;;;6.80;;
44774;SDS011;31340;51.402;0.016;2024-02-28T06:50:44;9.43;;;5.75;;
44774;SDS011;31340;51.402;0.016;2024-02-28T06:53:12;12.35;;;6.55;;
44774;SDS011;31340;51.402;0.016;2024-02-28T06:55:39;11.50;;;6.68;;
44774;SDS011;31340;51.402;0.016;2024-02-28T06:58:07;12.75;;;7.47;;
44774;SDS011;31340;51.402;0.016;2024-02-28T07:00:34;13.35;;;6.97;;
44774;SDS011;31340;51.402;0.016;2024-02-28T07:03:03;12.77;;;5.97;;
44774;SDS011;31340;51.402;0.016;2024-02-28T07:05:31;11.82;;;6.68;;
44774;SDS011;31340;51.402;0.016;2024-02-28T07:08:00;11.10;;;6.55;;
44774;SDS011;31340;51.402;0.016;2024-02-28T07:10:28;16.42;;;6.38;;
44774;SDS011;31340;51.402;0.016;2024-02-28T07:12:56;12.48;;;7.00;;
44774;SDS011;31340;51.402;0.016;2024-02-28T07:15:24;13.00;;;6.50;;
44774;SDS011;31340;51.402;0.016;2024-02-28T07:17:52;11.32;;;6.30;;
44774;SDS011;31340;51.402;0.016;2024-02-28T07:20:19;10.70;;;5.50;;
44774;SDS011;31340;51.402;0.016;2024-02-28T07:22:47;13.75;;;6.55;;
44774;SDS011;31340;51.402;0.016;2024-02-28T07:25:15;10.35;;;5.72;;
44774;SDS011;31340;51.402;0.016;2024-02-28T07:27:44;8.00;;;5.32;;
44774;SDS011;31340;51.402;0.016;2024-02-28T07:30:12;8.15;;;4.90;;
44774;SDS011;31340;51.402;0.016;2024-02-28T07:32:39;11.65;;;5.60;;
44774;SDS011;31340;51.402;0.016;2024-02-28T07:35:07;9.32;;;5.90;;
44774;SDS011;31340;51.402;0.016;2024-02-28T07:37:35;13.18;;;6.55;;
44774;SDS011;31340;51.402;0.016;2024-02-28T07:40:02;9.07;;;5.30;;
44774;SDS011;31340;51.402;0.016;2024-02-28T07:42:30;8.85;;;5.63;;
44774;SDS011;31340;51.402;0.016;2024-02-28T07:44:58;11.13;;;5.65;;
44774;SDS011;31340;51.402;0.016;2024-02-28T07:47:26;13.15;;;5.30;;
44774;SDS011;31340;51.402;0.016;2024-02-28T07:49:54;9.75;;;5.30;;
44774;SDS011;31340;51.402;0.016;2024-02-28T07:52:21;14.32;;;5.57;;
44774;SDS011;31340;51.402;0.016;2024-02-28T07:54:49;10.95;;;5.47;;
44774;SDS011;31340;51.402;0.016;2024-02-28T07:57:17;14.23;;;5.22;;
44774;SDS011;31340;51.402;0.016;2024-02-28T07:59:44;8.77;;;5.15;;
44774;SDS011;31340;51.402;0.016;2024-02-28T08:02:12;11.02;;;5.05;;
44774;SDS011;31340;51.402;0.016;2024-02-28T08:04:40;9.60;;;5.20;;
44774;SDS011;31340;51.402;0.016;2024-02-28T08:07:08;9.73;;;5.35;;
44774;SDS011;31340;51.402;0.016;2024-02-28T08:09:35;11.13;;;5.63;;
44774;SDS011;31340;51.402;0.016;2024-02-28T08:12:03;15.57;;;7.18;;
44774;SDS011;31340;51.402;0.016;2024-02-28T08:14:31;13.80;;;6.28;;
44774;SDS011;31340;51.402;0.016;2024-02-28T08:16:58;15.82;;;7.22;;
44774;SDS011;31340;51.402;0.016;2024-02-28T08:19:26;15.10;;;7.93;;
44774;SDS011;31340;51.402;0.016;2024-02-28T08:21:53;14.15;;;7.63;;
44774;SDS011;31340;51.402;0.016;2024-02-28T08:24:21;18.00;;;7.93;;
44774;SDS011;31340;51.402;0.016;2024-02-28T08:26:49;21.00;;;9.70;;
44774;SDS011;31340;51.402;0.016;2024-02-28T08:29:16;18.42;;;9.45;;
44774;SDS011;31340;51.402;0.016;2024-02-28T08:31:44;22.48;;;9.98;;
44774;SDS011;31340;51.402;0.016;2024-02-28T08:34:12;16.58;;;9.57;;
44774;SDS011;31340;51.402;0.016;2024-02-28T08:36:40;23.17;;;10.93;;
44774;SDS011;31340;51.402;0.016;2024-02-28T08:39:08;20.88;;;10.55;;
44774;SDS011;31340;51.402;0.016;2024-02-28T08:41:36;24.92;;;12.20;;
44774;SDS011;31340;51.402;0.016;2024-02-28T08:44:04;25.92;;;12.07;;
44774;SDS011;31340;51.402;0.016;2024-02-28T08:46:32;20.48;;;10.70;;
44774;SDS011;31340;51.402;0.016;2024-02-28T08:48:59;23.48;;;10.32;;
44774;SDS011;31340;51.402;0.016;2024-02-28T08:51:27;24.17;;;10.65;;
44774;SDS011;31340;51.402;0.016;2024-02-28T08:53:55;27.48;;;11.45;;
44774;SDS011;31340;51.402;0.016;2024-02-28T08:56:22;25.00;;;11.40;;
44774;SDS011;31340;51.402;0.016;2024-02-28T08:58:50;21.17;;;10.27;;
44774;SDS011;31340;51.402;0.016;2024-02-28T09:01:18;27.00;;;11.20;;
44774;SDS011;31340;51.402;0.016;2024-02-28T09:03:46;24.35;;;12.23;;
44774;SDS011;31340;51.402;0.016;2024-02-28T09:06:14;22.58;;;11.80;;
44774;SDS011;31340;51.402;0.016;2024-02-28T09:08:41;26.73;;;12.35;;
44774;SDS011;31340;51.402;0.016;2024-02-28T09:11:09;33.40;;;13.23;;
44774;SDS011;31340;51.402;0.016;2024-02-28T09:13:37;27.67;;;14.07;;
44774;SDS011;31340;51.402;0.016;2024-02-28T09:16:04;28.13;;;14.50;;
44774;SDS011;31340;51.402;0.016;2024-02-28T09:18:32;41.20;;;18.23;;
44774;SDS011;31340;51.402;0.016;2024-02-28T09:21:00;30.92;;;17.08;;
44774;SDS011;31340;51.402;0.016;2024-02-28T09:23:29;32.85;;;15.43;;
44774;SDS011;31340;51.402;0.016;2024-02-28T09:25:57;29.58;;;13.73;;
44774;SDS011;31340;51.402;0.016;2024-02-28T09:28:24;21.90;;;12.50;;
44774;SDS011;31340;51.402;0.016;2024-02-28T09:30:53;23.27;;;12.77;;
44774;SDS011;31340;51.402;0.016;2024-02-28T09:33:20;24.58;;;11.90;;
44774;SDS011;31340;51.402;0.016;2024-02-28T09:35:48;23.38;;;11.30;;
44774;SDS011;31340;51.402;0.016;2024-02-28T09:38:16;18.85;;;11.18;;
44774;SDS011;31340;51.402;0.016;2024-02-28T09:40:46;23.13;;;11.40;;
44774;SDS011;31340;51.402;0.016;2024-02-28T09:43:15;21.05;;;10.57;;
44774;SDS011;31340;51.402;0.016;2024-02-28T09:45:54;19.27;;;10.68;;
44774;SDS011;31340;51.402;0.016;2024-02-28T09:48:28;23.15;;;10.10;;
44774;SDS011;31340;51.402;0.016;2024-02-28T09:50:57;22.98;;;10.13;;
44774;SDS011;31340;51.402;0.016;2024-02-28T09:53:25;18.58;;;8.90;;
44774;SDS011;31340;51.402;0.016;2024-02-28T09:55:53;17.17;;;9.50;;
44774;SDS011;31340;51.402;0.016;2024-02-28T09:58:21;17.13;;;9.25;;
44774;SDS011;31340;51.402;0.016;2024-02-28T10:00:50;15.43;;;8.45;;
44774;SDS011;31340;51.402;0.016;2024-02-28T10:03:18;22.10;;;9.15;;
44774;SDS011;31340;51.402;0.016;2024-02-28T10:05:46;16.05;;;7.80;;
44774;SDS011;31340;51.402;0.016;2024-02-28T10:08:14;16.02;;;8.32;;
44774;SDS011;31340;51.402;0.016;2024-02-28T10:10:48;17.00;;;9.02;;
44774;SDS011;31340;51.402;0.016;2024-02-28T10:13:17;18.67;;;8.75;;
44774;SDS011;31340;51.402;0.016;2024-02-28T10:15:45;13.43;;;7.13;;
44774;SDS011;31340;51.402;0.016;2024-02-28T10:18:13;16.25;;;7.57;;
44774;SDS011;31340;51.402;0.016;2024-02-28T10:20:40;16.73;;;7.78;;
44774;SDS011;31340;51.402;0.016;2024-02-28T10:23:08;14.63;;;7.57;;
44774;SDS011;31340;51.402;0.016;2024-02-28T10:25:46;15.23;;;6.82;;
44774;SDS011;31340;51.402;0.016;2024-02-28T10:28:24;17.05;;;8.02;;
44774;SDS011;31340;51.402;0.016;2024-02-28T10:30:52;15.13;;;7.47;;
44774;SDS011;31340;51.402;0.016;2024-02-28T10:33:21;19.42;;;8.00;;
44774;SDS011;31340;51.402;0.016;2024-02-28T10:35:50;13.35;;;6.35;;
44774;SDS011;31340;51.402;0.016;2024-02-28T10:38:21;14.07;;;6.68;;
44774;SDS011;31340;51.402;0.016;2024-02-28T10:40:49;12.75;;;6.13;;
44774;SDS011;31340;51.402;0.016;2024-02-28T10:43:18;15.20;;;6.30;;
44774;SDS011;31340;51.402;0.016;2024-02-28T10:45:47;11.27;;;5.03;;
44774;SDS011;31340;51.402;0.016;2024-02-28T10:48:22;12.32;;;5.28;;
44774;SDS011;31340;51.402;0.016;2024-02-28T10:50:51;10.93;;;4.65;;
44774;SDS011;31340;51.402;0.016;2024-02-28T10:53:26;11.05;;;4.43;;
44774;SDS011;31340;51.402;0.016;2024-02-28T10:56:05;11.30;;;5.30;;
44774;SDS011;31340;51.402;0.016;2024-02-28T10:58:47;14.75;;;4.55;;
44774;SDS011;31340;51.402;0.016;2024-02-28T11:01:23;40.15;;;6.57;;
44774;SDS011;31340;51.402;0.016;2024-02-28T11:03:51;11.98;;;4.65;;
44774;SDS011;31340;51.402;0.016;2024-02-28T11:06:19;12.05;;;3.92;;
44774;SDS011;31340;51.402;0.016;2024-02-28T11:08:49;8.55;;;4.40;;
44774;SDS011;31340;51.402;0.016;2024-02-28T11:11:23;7.15;;;4.40;;
44774;SDS011;31340;51.402;0.016;2024-02-28T11:13:51;7.28;;;4.03;;
44774;SDS011;31340;51.402;0.016;2024-02-28T11:18:55;8.02;;;4.22;;
44774;SDS011;31340;51.402;0.016;2024-02-28T11:21:26;14.93;;;4.80;;
44774;SDS011;31340;51.402;0.016;2024-02-28T11:23:58;8.20;;;3.97;;
44774;SDS011;31340;51.402;0.016;2024-02-28T11:26:27;12.38;;;4.82;;
44774;SDS011;31340;51.402;0.016;2024-02-28T11:28:55;11.15;;;4.97;;
44774;SDS011;31340;51.402;0.016;2024-02-28T11:31:23;8.77;;;5.03;;
44774;SDS011;31340;51.402;0.016;2024-02-28T11:33:50;12.40;;;6.78;;
44774;SDS011;31340;51.402;0.016;2024-02-28T11:36:18;14.10;;;6.35;;
44774;SDS011;31340;51.402;0.016;2024-02-28T11:38:47;14.25;;;5.15;;
44774;SDS011;31340;51.402;0.016;2024-02-28T11:41:24;11.60;;;4.60;;
44774;SDS011;31340;51.402;0.016;2024-02-28T11:43:54;11.57;;;4.63;;
44774;SDS011;31340;51.402;0.016;2024-02-28T11:46:22;10.48;;;4.43;;
44774;SDS011;31340;51.402;0.016;2024-02-28T11:48:51;9.52;;;4.65;;
44774;SDS011;31340;51.402;0.016;2024-02-28T11:51:19;11.30;;;4.57;;
44774;SDS011;31340;51.402;0.016;2024-02-28T11:53:47;9.85;;;3.33;;
44774;SDS011;31340;51.402;0.016;2024-02-28T11:56:14;10.55;;;3.72;;
44774;SDS011;31340;51.402;0.016;2024-02-28T11:58:51;12.97;;;3.37;;
44774;SDS011;31340;51.402;0.016;2024-02-28T12:01:20;8.82;;;3.38;;
44774;SDS011;31340;51.402;0.016;2024-02-28T12:04:02;17.65;;;3.90;;
44774;SDS011;31340;51.402;0.016;2024-02-28T12:06:33;14.18;;;5.47;;
44774;SDS011;31340;51.402;0.016;2024-02-28T12:09:23;10.60;;;3.88;;
44774;SDS011;31340;51.402;0.016;2024-02-28T12:12:00;8.90;;;3.50;;
44774;SDS011;31340;51.402;0.016;2024-02-28T12:14:29;15.60;;;3.22;;
44774;SDS011;31340;51.402;0.016;2024-02-28T12:17:03;15.88;;;3.33;;
44774;SDS011;31340;51.402;0.016;2024-02-28T12:19:31;9.65;;;2.60;;
44774;SDS011;31340;51.402;0.016;2024-02-28T12:21:59;8.68;;;2.40;;
44774;SDS011;31340;51.402;0.016;2024-02-28T12:24:28;9.18;;;2.10;;
44774;SDS011;31340;51.402;0.016;2024-02-28T12:26:55;7.95;;;2.17;;
44774;SDS011;31340;51.402;0.016;2024-02-28T12:29:23;6.97;;;2.50;;
44774;SDS011;31340;51.402;0.016;2024-02-28T12:31:50;7.07;;;2.40;;
44774;SDS011;31340;51.402;0.016;2024-02-28T12:34:18;9.15;;;2.40;;
44774;SDS011;31340;51.402;0.016;2024-02-28T12:36:46;26.05;;;2.65;;
44774;SDS011;31340;51.402;0.016;2024-02-28T12:39:14;9.60;;;2.35;;
44774;SDS011;31340;51.402;0.016;2024-02-28T12:41:41;4.57;;;1.48;;
44774;SDS011;31340;51.402;0.016;2024-02-28T12:44:09;15.60;;;2.75;;
44774;SDS011;31340;51.402;0.016;2024-02-28T12:49:07;7.45;;;1.65;;
44774;SDS011;31340;51.402;0.016;2024-02-28T12:51:44;6.35;;;1.83;;
44774;SDS011;31340;51.402;0.016;2024-02-28T12:54:13;29.40;;;2.75;;
44774;SDS011;31340;51.402;0.016;2024-02-28T12:56:41;8.00;;;2.60;;
44774;SDS011;31340;51.402;0.016;2024-02-28T12:59:12;11.80;;;2.80;;
44774;SDS011;31340;51.402;0.016;2024-02-28T13:01:40;11.73;;;2.50;;
44774;SDS011;31340;51.402;0.016;2024-02-28T13:04:08;9.40;;;2.25;;
44774;SDS011;31340;51.402;0.016;2024-02-28T13:06:36;14.10;;;3.65;;
44774;SDS011;31340;51.402;0.016;2024-02-28T13:09:05;12.25;;;2.30;;
44774;SDS011;31340;51.402;0.016;2024-02-28T13:11:39;14.20;;;2.72;;
44774;SDS011;31340;51.402;0.016;2024-02-28T13:14:07;13.05;;;2.20;;
44774;SDS011;31340;51.402;0.016;2024-02-28T13:16:38;11.40;;;3.38;;
44774;SDS011;31340;51.402;0.016;2024-02-28T13:19:05;12.80;;;2.20;;
44774;SDS011;31340;51.402;0.016;2024-02-28T13:21:33;11.98;;;2.00;;
44774;SDS011;31340;51.402;0.016;2024-02-28T13:24:01;9.18;;;2.00;;
44774;SDS011;31340;51.402;0.016;2024-02-28T13:26:30;11.65;;;3.05;;
44774;SDS011;31340;51.402;0.016;2024-02-28T13:28:57;11.93;;;3.67;;
44774;SDS011;31340;51.402;0.016;2024-02-28T13:31:25;10.10;;;2.60;;
44774;SDS011;31340;51.402;0.016;2024-02-28T13:33:53;9.95;;;2.58;;
44774;SDS011;31340;51.402;0.016;2024-02-28T13:36:20;8.75;;;2.55;;
44774;SDS011;31340;51.402;0.016;2024-02-28T13:38:49;11.18;;;2.92;;
44774;SDS011;31340;51.402;0.016;2024-02-28T13:41:16;13.52;;;3.40;;
44774;SDS011;31340;51.402;0.016;2024-02-28T13:43:44;8.68;;;3.50;;
44774;SDS011;31340;51.402;0.016;2024-02-28T13:46:11;8.70;;;2.60;;
44774;SDS011;31340;51.402;0.016;2024-02-28T13:48:41;9.43;;;2.35;;
44774;SDS011;31340;51.402;0.016;2024-02-28T13:51:09;9.10;;;1.80;;
44774;SDS011;31340;51.402;0.016;2024-02-28T13:53:37;6.90;;;1.85;;
44774;SDS011;31340;51.402;0.016;2024-02-28T13:56:05;8.23;;;2.47;;
44774;SDS011;31340;51.402;0.016;2024-02-28T13:58:33;10.93;;;2.15;;
44774;SDS011;31340;51.402;0.016;2024-02-28T14:01:09;11.18;;;2.30;;
44774;SDS011;31340;51.402;0.016;2024-02-28T14:03:37;8.98;;;1.70;;
44774;SDS011;31340;51.402;0.016;2024-02-28T14:06:08;11.40;;;2.40;;
44774;SDS011;31340;51.402;0.016;2024-02-28T14:08:36;8.82;;;2.20;;
44774;SDS011;31340;51.402;0.016;2024-02-28T14:11:07;10.75;;;2.70;;
44774;SDS011;31340;51.402;0.016;2024-02-28T14:13:34;15.75;;;3.30;;
44774;SDS011;31340;51.402;0.016;2024-02-28T14:16:02;14.27;;;2.85;;
44774;SDS011;31340;51.402;0.016;2024-02-28T14:18:30;11.00;;;2.88;;
44774;SDS011;31340;51.402;0.016;2024-02-28T14:20:58;17.08;;;3.10;;
44774;SDS011;31340;51.402;0.016;2024-02-28T14:23:26;13.05;;;2.63;;
44774;SDS011;31340;51.402;0.016;2024-02-28T14:25:54;13.02;;;3.20;;
44774;SDS011;31340;51.402;0.016;2024-02-28T14:28:22;17.08;;;3.03;;
44774;SDS011;31340;51.402;0.016;2024-02-28T14:30:49;17.80;;;3.22;;
44774;SDS011;31340;51.402;0.016;2024-02-28T14:33:17;15.23;;;3.08;;
44774;SDS011;31340;51.402;0.016;2024-02-28T14:35:45;11.77;;;2.70;;
44774;SDS011;31340;51.402;0.016;2024-02-28T14:38:13;16.48;;;3.47;;
44774;SDS011;31340;51.402;0.016;2024-02-28T14:40:40;17.60;;;3.40;;
44774;SDS011;31340;51.402;0.016;2024-02-28T14:43:08;20.63;;;3.45;;
44774;SDS011;31340;51.402;0.016;2024-02-28T14:45:36;19.33;;;4.20;;
44774;SDS011;31340;51.402;0.016;2024-02-28T14:48:07;16.38;;;3.58;;
44774;SDS011;31340;51.402;0.016;2024-02-28T14:50:35;18.50;;;3.60;;
44774;SDS011;31340;51.402;0.016;2024-02-28T14:53:03;19.42;;;3.75;;